Beaver Falls, New York
Current Conditions -  °F | °C
As of 1:58 AM on Sunday 26 Oct 2014 (Local Time) from KGTB Reporting Station
Overcast Overcast  
Wind Chill: 44°   Ceiling: 4000
Heat Index: 49°   Visibility: 10mi
Dew Point: 39°   Wind: 12mph
Humidity: 68%   Direction: 270°W
Pressure: 29.49"   Gusts: NA
Location:  43.89°N, 75.43°W
Report Text: KGTB 260558Z AUTO 27010KT 10SM OVC040 10/04 A2949 RMK AO2 SLP987 T00950039 10115 20093 57010
Loading
Personal Weather Stations






























Interactive Weather Map
Tropical Storm Tracking
New forecast layout! Learn more

10-Day Weather Forecast

Advertisements
Track Severe Weather on mobile